Time;durP1;ratioP1;P1;durP2;ratioP2;P2;SDS_P1;SDS_P2;PMS_P1;PMS_P2;Temp;Humidity;BMP_temperature;BMP_pressure;BME280_temperature;BME280_humidity;BME280_pressure;Samples;Min_cycle;Max_cycle;Signal;HPM_P1;HPM_P2
2022/06/21 00:02:15;;;;;;;1.60;0.90;;;12.10;94.30;;;;;;638078;221;27249;-62
2022/06/21 00:04:43;;;;;;;1.05;0.80;;;12.10;94.60;;;;;;638793;221;26515;-62
2022/06/21 00:07:10;;;;;;;1.45;0.93;;;12.10;94.90;;;;;;647597;221;26823;-62
2022/06/21 00:09:37;;;;;;;0.90;0.90;;;12.10;95.20;;;;;;639214;221;26540;-62
2022/06/21 00:12:05;;;;;;;1.00;0.90;;;12.00;95.40;;;;;;639575;223;26795;-62
2022/06/21 00:14:32;;;;;;;1.12;1.00;;;12.10;95.70;;;;;;641160;223;26565;-62
2022/06/21 00:16:59;;;;;;;0.93;0.70;;;12.00;95.90;;;;;;649528;220;26792;-62
2022/06/21 00:19:27;;;;;;;1.00;0.98;;;12.00;96.10;;;;;;644492;220;26547;-62
2022/06/21 00:21:54;;;;;;;1.52;0.80;;;12.00;96.30;;;;;;639447;224;26791;-62
2022/06/21 00:24:21;;;;;;;0.90;0.88;;;12.00;96.40;;;;;;638599;221;26549;-62
2022/06/21 00:26:48;;;;;;;1.27;0.90;;;12.10;96.70;;;;;;639496;224;26716;-62
2022/06/21 00:29:16;;;;;;;1.20;0.90;;;12.00;96.80;;;;;;639467;224;26542;-62
2022/06/21 00:31:43;;;;;;;0.80;0.80;;;12.00;96.80;;;;;;644531;220;26749;-62
2022/06/21 00:34:13;;;;;;;1.65;0.93;;;12.10;96.90;;;;;;639398;221;26910;-62
2022/06/21 00:36:40;;;;;;;1.75;0.93;;;12.20;96.80;;;;;;638923;224;26544;-62
2022/06/21 00:39:08;;;;;;;1.30;0.90;;;12.10;96.80;;;;;;639310;222;26533;-62
2022/06/21 00:41:44;;;;;;;1.52;0.85;;;12.00;97.20;;;;;;638755;221;26579;-62
2022/06/21 00:44:14;;;;;;;1.48;1.10;;;12.00;97.10;;;;;;639545;221;26575;-62
2022/06/21 00:46:46;;;;;;;1.87;1.10;;;12.00;97.10;;;;;;651078;221;26529;-62
2022/06/21 00:49:28;;;;;;;1.10;1.00;;;12.00;97.20;;;;;;650529;221;26849;-62
2022/06/21 00:51:57;;;;;;;0.80;0.80;;;12.00;97.30;;;;;;650316;220;26528;-63
2022/06/21 00:54:24;;;;;;;1.00;1.00;;;12.00;97.50;;;;;;647892;221;26512;-63
2022/06/21 00:56:58;;;;;;;1.58;1.08;;;12.00;97.60;;;;;;637028;225;26488;-63
2022/06/21 00:59:25;;;;;;;0.98;0.90;;;12.00;97.60;;;;;;638217;221;26540;-62
2022/06/21 01:01:54;;;;;;;1.20;1.00;;;11.90;97.60;;;;;;644253;221;26517;-63
2022/06/21 01:04:26;;;;;;;2.42;1.30;;;11.90;97.60;;;;;;637951;224;26523;-63
2022/06/21 01:06:54;;;;;;;1.27;1.20;;;12.00;97.60;;;;;;638628;224;26595;-63
2022/06/21 01:09:22;;;;;;;1.23;1.12;;;11.90;97.70;;;;;;637856;221;26809;-63
2022/06/21 01:11:49;;;;;;;1.05;1.02;;;11.90;97.80;;;;;;645876;221;26568;-63
2022/06/21 01:14:16;;;;;;;1.25;1.15;;;11.90;97.80;;;;;;637908;224;26752;-62
2022/06/21 01:16:44;;;;;;;1.42;1.20;;;11.90;97.80;;;;;;638762;221;26485;-62
2022/06/21 01:19:13;;;;;;;1.65;1.25;;;11.90;97.90;;;;;;638806;225;26778;-61
2022/06/21 01:21:40;;;;;;;3.47;1.30;;;11.90;97.70;;;;;;637376;225;26576;-62
2022/06/21 01:24:09;;;;;;;1.95;1.33;;;11.90;97.90;;;;;;648290;220;26782;-62
2022/06/21 01:26:42;;;;;;;2.25;1.15;;;11.90;98.10;;;;;;639467;223;26573;-62
2022/06/21 01:29:11;;;;;;;1.40;1.30;;;11.90;98.10;;;;;;648355;220;26546;-62
2022/06/21 01:31:38;;;;;;;1.42;1.20;;;11.90;98.20;;;;;;647699;219;26524;-62
2022/06/21 01:34:06;;;;;;;1.52;1.15;;;11.80;98.30;;;;;;638959;221;26511;-61
2022/06/21 01:36:33;;;;;;;2.03;1.17;;;11.80;98.60;;;;;;650903;221;26568;-62
2022/06/21 01:39:02;;;;;;;1.08;0.90;;;11.80;98.90;;;;;;638837;221;26559;-62
2022/06/21 01:41:30;;;;;;;4.18;1.20;;;11.80;99.30;;;;;;649747;221;26594;-62
2022/06/21 01:43:57;;;;;;;1.08;1.08;;;11.80;99.00;;;;;;650897;221;26569;-62
2022/06/21 01:46:24;;;;;;;0.98;0.90;;;11.90;99.10;;;;;;638437;221;26559;-64
2022/06/21 01:48:52;;;;;;;2.33;1.33;;;11.90;99.00;;;;;;643482;221;26521;-64
2022/06/21 01:51:21;;;;;;;2.70;1.40;;;12.00;99.00;;;;;;650193;221;26516;-64
2022/06/21 01:53:48;;;;;;;1.45;1.20;;;12.10;99.00;;;;;;646159;221;26550;-64
2022/06/21 01:56:16;;;;;;;1.50;1.00;;;12.10;99.00;;;;;;638252;221;26811;-64
2022/06/21 01:58:44;;;;;;;2.00;1.12;;;12.10;99.00;;;;;;637328;223;26618;-65
2022/06/21 02:01:14;;;;;;;2.22;1.35;;;12.00;99.20;;;;;;638429;221;26591;-64
2022/06/21 02:03:42;;;;;;;1.10;1.10;;;11.90;99.70;;;;;;640733;221;26558;-64
2022/06/21 02:06:11;;;;;;;1.52;1.27;;;11.90;99.90;;;;;;638673;223;26516;-64
2022/06/21 02:08:40;;;;;;;1.50;1.25;;;11.80;99.80;;;;;;640657;221;26812;-64
2022/06/21 02:11:08;;;;;;;1.20;1.10;;;11.80;99.90;;;;;;641486;221;26549;-64
2022/06/21 02:13:36;;;;;;;2.33;1.17;;;11.80;99.90;;;;;;637247;221;26526;-64
2022/06/21 02:16:08;;;;;;;1.27;1.15;;;11.70;99.90;;;;;;646139;221;26617;-64
2022/06/21 02:18:35;;;;;;;2.15;1.33;;;11.70;99.90;;;;;;642159;221;26585;-64
2022/06/21 02:21:32;;;;;;;1.45;1.20;;;11.70;99.90;;;;;;644075;221;26788;-64
2022/06/21 02:23:59;;;;;;;1.10;1.10;;;11.70;99.90;;;;;;637345;225;26532;-64
2022/06/21 02:26:28;;;;;;;1.75;1.10;;;11.70;99.90;;;;;;649420;221;26567;-64
2022/06/21 02:28:54;;;;;;;1.98;1.23;;;11.70;99.90;;;;;;649663;221;26550;-64
2022/06/21 02:31:21;;;;;;;1.95;1.23;;;11.70;99.90;;;;;;641957;221;26762;-64
2022/06/21 02:33:48;;;;;;;1.62;1.27;;;11.60;99.90;;;;;;644967;221;26575;-64
2022/06/21 02:36:16;;;;;;;2.12;1.30;;;11.60;99.90;;;;;;638924;221;26789;-64
2022/06/21 02:38:46;;;;;;;2.10;1.30;;;11.60;99.90;;;;;;640004;220;26772;-64
2022/06/21 02:41:19;;;;;;;1.60;1.25;;;11.60;99.90;;;;;;643490;222;26526;-64
2022/06/21 02:44:01;;;;;;;1.35;1.02;;;11.60;99.90;;;;;;641395;221;26549;-65
2022/06/21 02:46:30;;;;;;;1.77;1.45;;;11.60;99.90;;;;;;647855;220;26622;-64
2022/06/21 02:49:00;;;;;;;2.00;1.27;;;11.50;99.90;;;;;;651551;220;26602;-64
2022/06/21 02:51:29;;;;;;;2.47;1.45;;;11.50;99.90;;;;;;639040;221;26500;-64
2022/06/21 02:54:07;;;;;;;2.95;1.37;;;11.50;99.90;;;;;;639532;222;26490;-64
2022/06/21 02:56:32;;;;;;;1.55;1.30;;;11.50;99.90;;;;;;651684;221;26544;-64
2022/06/21 02:58:59;;;;;;;1.23;1.12;;;11.50;99.90;;;;;;650647;221;26785;-64
2022/06/21 03:01:31;;;;;;;1.52;1.20;;;11.60;99.90;;;;;;646009;221;26545;-64
2022/06/21 03:03:59;;;;;;;2.62;1.40;;;11.50;99.90;;;;;;638806;221;26522;-64
2022/06/21 03:06:26;;;;;;;2.08;1.37;;;11.50;99.90;;;;;;642658;221;26523;-64
2022/06/21 03:08:53;;;;;;;3.00;1.02;;;11.50;99.90;;;;;;643836;221;26795;-64
2022/06/21 03:11:21;;;;;;;1.27;1.17;;;11.50;99.90;;;;;;649439;221;26480;-64
2022/06/21 03:13:49;;;;;;;2.42;1.40;;;11.40;99.90;;;;;;640834;221;26516;-64
2022/06/21 03:16:18;;;;;;;1.30;1.20;;;11.50;99.90;;;;;;638743;225;26727;-64
2022/06/21 03:18:48;;;;;;;1.58;1.27;;;11.40;99.90;;;;;;640903;221;26579;-64
2022/06/21 03:21:15;;;;;;;1.98;1.20;;;11.40;99.90;;;;;;650783;219;26518;-64
2022/06/21 03:23:42;;;;;;;1.98;1.40;;;11.40;99.90;;;;;;650830;221;26495;-64
2022/06/21 03:26:09;;;;;;;1.35;1.25;;;11.40;99.90;;;;;;650764;221;26501;-64
2022/06/21 03:28:37;;;;;;;1.12;1.02;;;11.50;99.90;;;;;;641429;221;26828;-64
2022/06/21 03:31:23;;;;;;;1.65;1.40;;;11.50;99.90;;;;;;637941;225;26561;-64
2022/06/21 03:33:51;;;;;;;1.20;1.10;;;11.50;99.90;;;;;;640125;221;26573;-64
2022/06/21 03:36:19;;;;;;;2.03;1.50;;;11.40;99.90;;;;;;645476;221;26557;-65
2022/06/21 03:38:46;;;;;;;1.92;1.20;;;11.50;99.90;;;;;;650270;221;27206;-64
2022/06/21 03:43:47;;;;;;;2.83;1.55;;;11.50;99.90;;;;;;647779;221;26577;-64
2022/06/21 03:46:16;;;;;;;2.40;1.50;;;11.50;99.90;;;;;;639180;221;26814;-65
2022/06/21 03:48:44;;;;;;;1.33;1.23;;;11.70;99.90;;;;;;638251;223;26499;-64
2022/06/21 03:51:12;;;;;;;1.30;1.20;;;11.70;99.90;;;;;;640584;222;26525;-64
2022/06/21 03:53:42;;;;;;;1.55;1.20;;;11.80;99.90;;;;;;646959;221;26519;-64
2022/06/21 03:56:10;;;;;;;1.20;1.10;;;11.70;99.90;;;;;;639335;224;26756;-65
2022/06/21 03:58:42;;;;;;;2.65;1.17;;;11.80;99.90;;;;;;638713;223;26582;-65
2022/06/21 04:01:12;;;;;;;2.00;1.20;;;11.80;99.90;;;;;;641288;221;26576;-64
2022/06/21 04:03:43;;;;;;;1.73;1.20;;;11.80;99.90;;;;;;638505;221;26518;-65
2022/06/21 04:06:11;;;;;;;2.08;1.17;;;11.90;99.90;;;;;;638775;221;26692;-64
2022/06/21 04:08:43;;;;;;;2.37;1.10;;;11.80;99.90;;;;;;646546;221;26743;-65
2022/06/21 04:11:10;;;;;;;2.03;1.12;;;11.80;99.90;;;;;;649811;221;26523;-65
2022/06/21 04:13:40;;;;;;;3.05;1.17;;;11.90;99.90;;;;;;649372;221;26566;-64
2022/06/21 04:16:08;;;;;;;1.35;1.08;;;11.90;99.90;;;;;;644284;221;26574;-64
2022/06/21 04:18:41;;;;;;;2.28;1.37;;;11.90;99.90;;;;;;650888;221;26507;-65
2022/06/21 04:21:11;;;;;;;1.02;1.00;;;12.00;99.90;;;;;;639619;221;26753;-65
2022/06/21 04:23:42;;;;;;;2.22;1.30;;;12.00;99.90;;;;;;647475;221;26723;-66
2022/06/21 04:26:12;;;;;;;1.20;1.10;;;12.20;99.90;;;;;;639242;221;26478;-65
2022/06/21 04:28:43;;;;;;;2.92;1.62;;;12.50;99.90;;;;;;638928;223;26524;-65
2022/06/21 04:31:13;;;;;;;4.57;1.85;;;12.50;99.90;;;;;;641048;221;26792;-64
2022/06/21 04:33:43;;;;;;;2.03;1.20;;;12.70;99.90;;;;;;650797;221;26474;-65
2022/06/21 04:36:14;;;;;;;2.10;1.20;;;12.70;99.90;;;;;;650767;221;26750;-64
2022/06/21 04:38:43;;;;;;;3.65;1.73;;;12.70;99.90;;;;;;639430;221;26524;-65
2022/06/21 04:41:25;;;;;;;2.60;1.48;;;12.70;99.90;;;;;;638560;224;26553;-65
2022/06/21 04:43:57;;;;;;;1.60;1.35;;;12.70;99.90;;;;;;638703;224;26578;-65
2022/06/21 04:46:37;;;;;;;1.80;1.17;;;12.70;99.90;;;;;;638209;224;26764;-64
2022/06/21 04:49:15;;;;;;;3.47;1.50;;;12.70;99.90;;;;;;641971;218;26567;-65
2022/06/21 04:51:43;;;;;;;1.30;1.00;;;12.70;99.90;;;;;;638485;221;26793;-65
2022/06/21 04:54:13;;;;;;;3.42;1.40;;;12.70;99.90;;;;;;644558;221;26579;-65
2022/06/21 04:56:44;;;;;;;2.08;1.30;;;12.60;99.90;;;;;;646277;220;26573;-71
2022/06/21 04:59:12;;;;;;;38.70;9.52;;;12.60;99.90;;;;;;640367;221;26788;-69
2022/06/21 05:01:39;;;;;;;31.33;6.53;;;12.70;99.90;;;;;;642871;220;26482;-70
2022/06/21 05:04:17;;;;;;;18.02;4.82;;;12.80;99.90;;;;;;639817;224;26572;-69
2022/06/21 05:06:44;;;;;;;18.95;4.72;;;12.90;99.80;;;;;;648141;221;26589;-69
2022/06/21 05:09:14;;;;;;;17.17;3.25;;;12.90;99.60;;;;;;645961;216;26549;-70
2022/06/21 05:11:42;;;;;;;4.12;1.52;;;13.10;99.50;;;;;;641003;221;26520;-70
2022/06/21 05:14:16;;;;;;;2.75;1.23;;;13.20;99.10;;;;;;638092;221;26745;-70
2022/06/21 05:16:43;;;;;;;2.20;1.50;;;13.20;98.90;;;;;;638734;221;26797;-69
2022/06/21 05:19:23;;;;;;;4.57;1.70;;;13.20;98.70;;;;;;648017;218;26499;-69
2022/06/21 05:21:51;;;;;;;1.85;1.48;;;13.10;98.50;;;;;;641383;221;26578;-70
2022/06/21 05:24:18;;;;;;;2.83;1.55;;;13.10;98.70;;;;;;637612;221;26784;-69
2022/06/21 05:26:46;;;;;;;3.22;1.40;;;13.20;98.10;;;;;;637970;221;26554;-70
2022/06/21 05:29:14;;;;;;;3.60;1.67;;;13.30;98.10;;;;;;638742;222;26581;-69
2022/06/21 05:31:42;;;;;;;4.37;1.87;;;13.60;97.20;;;;;;645810;222;26585;-69
2022/06/21 05:34:14;;;;;;;3.67;1.50;;;13.60;96.80;;;;;;646255;222;26580;-68
2022/06/21 05:36:53;;;;;;;1.87;1.35;;;13.70;96.80;;;;;;645871;222;26611;-69
2022/06/21 05:39:22;;;;;;;3.65;1.60;;;13.70;96.50;;;;;;646038;221;26801;-68
2022/06/21 05:41:50;;;;;;;2.42;1.37;;;14.40;95.20;;;;;;645971;223;26594;-69
2022/06/21 05:44:28;;;;;;;2.72;1.50;;;14.40;95.20;;;;;;645999;223;26786;-70
2022/06/21 05:46:55;;;;;;;3.87;1.65;;;14.20;94.60;;;;;;645863;223;26543;-68
2022/06/21 05:49:24;;;;;;;2.80;1.33;;;14.00;94.60;;;;;;645834;221;26574;-69
2022/06/21 05:51:51;;;;;;;2.75;1.33;;;13.90;94.90;;;;;;646276;223;26547;-71
2022/06/21 05:54:19;;;;;;;4.37;1.73;;;13.70;95.40;;;;;;639902;221;26490;-70
2022/06/21 05:56:47;;;;;;;6.80;1.75;;;13.60;95.30;;;;;;639738;221;26502;-71
2022/06/21 05:59:15;;;;;;;3.67;1.95;;;13.70;94.90;;;;;;639219;225;26612;-70
2022/06/21 06:01:43;;;;;;;2.87;1.65;;;13.70;94.90;;;;;;638646;224;26739;-70
2022/06/21 06:04:27;;;;;;;5.57;1.35;;;14.10;94.40;;;;;;638853;223;26577;-71
2022/06/21 06:06:55;;;;;;;2.97;1.70;;;14.00;94.10;;;;;;645085;221;26509;-70
2022/06/21 06:09:24;;;;;;;2.58;1.30;;;14.00;94.10;;;;;;649921;220;26509;-70
2022/06/21 06:12:00;;;;;;;5.65;1.48;;;14.20;93.80;;;;;;647498;219;26496;-71
2022/06/21 06:14:27;;;;;;;2.60;2.12;;;14.20;93.50;;;;;;643934;220;26556;-70
2022/06/21 06:16:54;;;;;;;17.17;7.87;;;14.20;92.60;;;;;;640978;220;26784;-71
2022/06/21 06:19:37;;;;;;;53.42;25.50;;;14.20;92.80;;;;;;640527;221;26583;-70
2022/06/21 06:22:18;;;;;;;57.05;27.62;;;14.40;92.60;;;;;;644790;221;26568;-71
2022/06/21 06:24:50;;;;;;;42.78;19.00;;;14.10;92.50;;;;;;647885;221;26763;-71
2022/06/21 06:27:30;;;;;;;33.28;16.45;;;14.40;92.30;;;;;;638030;221;26517;-71
2022/06/21 06:29:57;;;;;;;36.05;16.92;;;14.40;92.30;;;;;;639054;221;26542;-71
2022/06/21 06:32:27;;;;;;;35.00;16.85;;;14.40;91.80;;;;;;637759;221;26845;-70
2022/06/21 06:34:54;;;;;;;35.90;18.25;;;14.50;91.60;;;;;;648447;221;26745;-71
2022/06/21 06:37:31;;;;;;;38.83;18.52;;;14.70;91.00;;;;;;649120;221;26515;-71
2022/06/21 06:39:59;;;;;;;38.55;17.52;;;14.80;90.90;;;;;;651502;220;26522;-70
2022/06/21 06:42:26;;;;;;;36.78;18.48;;;14.90;90.60;;;;;;651475;220;26480;-71
2022/06/21 06:44:57;;;;;;;39.90;17.80;;;15.10;90.40;;;;;;640580;221;26757;-70
2022/06/21 06:47:28;;;;;;;28.40;12.75;;;15.20;89.90;;;;;;639060;221;26827;-69
2022/06/21 06:49:57;;;;;;;28.75;12.45;;;15.20;89.80;;;;;;638144;225;26542;-69
2022/06/21 06:52:28;;;;;;;22.20;11.35;;;15.70;86.60;;;;;;638245;224;26527;-71
2022/06/21 06:55:03;;;;;;;17.42;9.70;;;15.70;86.20;;;;;;638606;221;26537;-73
2022/06/21 06:57:33;;;;;;;23.50;10.50;;;15.70;86.20;;;;;;647329;220;26517;-72
2022/06/21 07:00:00;;;;;;;20.80;9.55;;;15.90;84.20;;;;;;643153;221;26577;-72
2022/06/21 07:02:32;;;;;;;23.25;10.82;;;15.80;84.20;;;;;;642375;220;26768;-71
2022/06/21 07:05:17;;;;;;;25.50;9.80;;;15.80;83.40;;;;;;644421;223;26575;-71
2022/06/21 07:07:55;;;;;;;24.87;10.18;;;15.60;84.20;;;;;;641656;221;26602;-72
2022/06/21 07:10:21;;;;;;;43.70;19.48;;;15.70;83.10;;;;;;650800;221;26571;-73
2022/06/21 07:12:49;;;;;;;42.88;19.15;;;15.70;82.00;;;;;;640285;221;26781;-72
2022/06/21 07:15:17;;;;;;;37.15;18.52;;;16.10;80.80;;;;;;644134;221;26568;-72
2022/06/21 07:17:47;;;;;;;41.35;17.23;;;16.10;80.90;;;;;;638445;224;26515;-72
2022/06/21 07:20:18;;;;;;;32.60;16.35;;;16.20;81.50;;;;;;645106;221;26590;-72
2022/06/21 07:22:46;;;;;;;32.70;15.90;;;16.20;80.90;;;;;;640966;221;26803;-72
2022/06/21 07:25:32;;;;;;;34.47;14.30;;;16.50;77.20;;;;;;641571;220;26515;-72
2022/06/21 07:28:01;;;;;;;35.78;15.48;;;16.50;77.20;;;;;;644339;220;26810;-72
2022/06/21 07:30:31;;;;;;;33.17;14.87;;;16.60;75.00;;;;;;638936;221;26534;-72
2022/06/21 07:32:57;;;;;;;28.30;13.48;;;16.90;76.20;;;;;;639417;222;26502;-71
2022/06/21 07:35:36;;;;;;;30.52;13.25;;;16.80;74.10;;;;;;644701;220;26569;-72
2022/06/21 07:38:14;;;;;;;33.28;11.82;;;16.70;73.90;;;;;;643666;221;26772;-72
2022/06/21 07:40:41;;;;;;;24.05;11.48;;;17.00;72.40;;;;;;651118;221;27169;-71
2022/06/21 07:43:13;;;;;;;23.33;11.38;;;17.00;72.40;;;;;;638466;221;26798;-72
2022/06/21 07:45:44;;;;;;;22.48;10.50;;;17.00;70.60;;;;;;641710;221;26786;-71
2022/06/21 07:48:12;;;;;;;21.60;9.30;;;16.90;69.40;;;;;;651368;221;26492;-72
2022/06/21 07:50:43;;;;;;;23.83;10.20;;;17.10;68.90;;;;;;651178;221;26737;-72
2022/06/21 07:53:21;;;;;;;19.30;9.57;;;17.30;66.60;;;;;;640263;221;26552;-72
2022/06/21 07:55:49;;;;;;;19.37;9.35;;;17.30;66.60;;;;;;644656;221;26533;-73
2022/06/21 07:58:21;;;;;;;17.85;7.87;;;17.20;62.40;;;;;;645379;221;26563;-73
2022/06/21 08:08:38;;;;;;;14.10;7.85;;;17.70;59.80;;;;;;645773;221;26586;-72
2022/06/21 08:11:07;;;;;;;17.08;7.70;;;17.70;59.80;;;;;;650563;221;27167;-72
2022/06/21 08:13:35;;;;;;;17.92;7.70;;;17.70;58.50;;;;;;646566;221;26585;-72
2022/06/21 08:16:07;;;;;;;15.88;7.20;;;17.80;58.10;;;;;;637928;224;26566;-73
2022/06/21 08:18:51;;;;;;;12.45;6.57;;;17.80;58.30;;;;;;638483;223;26583;-72
2022/06/21 08:21:19;;;;;;;12.93;6.20;;;18.00;58.30;;;;;;635973;221;26549;-72
2022/06/21 08:23:47;;;;;;;15.10;5.95;;;17.90;58.20;;;;;;646270;221;26563;-75
2022/06/21 08:26:20;;;;;;;14.82;5.62;;;18.00;58.20;;;;;;638400;224;26515;-72
2022/06/21 08:28:52;;;;;;;10.77;5.05;;;18.10;58.20;;;;;;644115;223;26596;-72
2022/06/21 08:31:22;;;;;;;13.30;5.93;;;18.20;57.60;;;;;;637190;225;26787;-72
2022/06/21 08:33:51;;;;;;;11.00;5.28;;;18.50;55.70;;;;;;642252;221;26846;-72
2022/06/21 08:36:24;;;;;;;11.45;5.12;;;18.30;55.30;;;;;;652437;220;26578;-72
2022/06/21 08:38:51;;;;;;;7.78;4.60;;;18.30;55.30;;;;;;642505;220;26569;-70
2022/06/21 08:41:55;;;;;;;11.52;4.75;;;18.40;55.60;;;;;;638807;224;26515;-72
2022/06/21 08:44:50;;;;;;;9.55;5.05;;;18.40;55.60;;;;;;633041;225;26811;-72
2022/06/21 08:47:27;;;;;;;9.13;4.62;;;18.60;55.30;;;;;;649009;220;26811;-71
2022/06/21 08:50:10;;;;;;;13.23;4.82;;;18.70;55.70;;;;;;637697;223;26595;-69
2022/06/21 08:53:14;;;;;;;10.60;4.57;;;18.60;54.30;;;;;;638463;224;26494;-69
2022/06/21 08:55:48;;;;;;;11.20;4.40;;;18.60;54.70;;;;;;617519;229;26594;-69
2022/06/21 08:58:40;;;;;;;11.55;4.22;;;18.70;55.20;;;;;;626346;229;26604;-69
2022/06/21 09:01:11;;;;;;;7.20;3.75;;;18.90;54.80;;;;;;614642;230;26600;-70
2022/06/21 09:03:49;;;;;;;12.15;4.53;;;18.80;54.70;;;;;;624878;229;26571;-69
2022/06/21 09:06:45;;;;;;;9.20;3.30;;;19.00;54.40;;;;;;625388;228;26834;-69
2022/06/21 09:09:33;;;;;;;5.10;2.37;;;18.90;53.60;;;;;;624829;229;26588;-69
2022/06/21 09:12:03;;;;;;;5.80;3.05;;;18.80;53.20;;;;;;615018;229;26640;-69
2022/06/21 09:14:39;;;;;;;4.80;3.08;;;18.80;53.50;;;;;;642107;220;26581;-67
2022/06/21 09:17:07;;;;;;;6.18;3.08;;;19.00;53.80;;;;;;638561;223;26772;-67
2022/06/21 09:19:48;;;;;;;89.57;17.00;;;19.00;53.80;;;;;;642627;221;26572;-69
2022/06/21 09:22:16;;;;;;;124.70;23.80;;;19.20;53.90;;;;;;637740;225;26523;-68
2022/06/21 09:24:45;;;;;;;141.52;27.77;;;19.20;53.50;;;;;;647008;221;26600;-69
2022/06/21 09:27:26;;;;;;;101.25;23.58;;;19.20;53.90;;;;;;649814;221;26788;-69
2022/06/21 09:30:11;;;;;;;87.75;21.20;;;19.30;53.90;;;;;;645729;221;26570;-68
2022/06/21 09:32:47;;;;;;;84.87;18.20;;;19.20;53.80;;;;;;632300;221;26812;-68
2022/06/21 09:35:17;;;;;;;82.75;18.02;;;19.20;53.70;;;;;;643209;221;26561;-68
2022/06/21 09:37:49;;;;;;;67.12;16.58;;;19.40;53.80;;;;;;637998;223;26500;-67
2022/06/21 09:40:21;;;;;;;68.07;15.70;;;19.30;53.60;;;;;;649184;220;26952;-67
2022/06/21 09:42:52;;;;;;;46.92;13.77;;;19.60;54.10;;;;;;637597;221;26541;-67
2022/06/21 09:45:24;;;;;;;56.72;11.48;;;19.60;54.10;;;;;;638355;224;26591;-67
2022/06/21 09:47:57;;;;;;;28.85;8.82;;;19.70;53.00;;;;;;650434;220;27239;-67
2022/06/21 09:50:30;;;;;;;11.93;4.32;;;19.80;52.80;;;;;;648333;220;26591;-67
2022/06/21 09:52:59;;;;;;;8.68;3.65;;;19.80;52.80;;;;;;645389;221;26568;-67
2022/06/21 09:55:34;;;;;;;8.00;3.55;;;19.80;52.30;;;;;;642007;221;26508;-67
2022/06/21 09:58:19;;;;;;;9.40;3.22;;;19.70;52.00;;;;;;639389;221;26559;-67
2022/06/21 10:01:02;;;;;;;7.87;2.72;;;19.70;51.90;;;;;;645814;221;26560;-67
2022/06/21 10:03:31;;;;;;;8.82;3.30;;;19.90;52.60;;;;;;637224;225;26570;-68
2022/06/21 10:06:05;;;;;;;5.50;3.00;;;20.00;52.10;;;;;;638103;221;26564;-67
2022/06/21 10:08:54;;;;;;;6.87;3.12;;;20.20;51.80;;;;;;650640;221;26536;-67
2022/06/21 10:11:30;;;;;;;6.43;3.00;;;20.20;51.60;;;;;;649560;221;26586;-67
2022/06/21 10:14:05;;;;;;;11.70;3.10;;;20.20;51.20;;;;;;649603;221;26745;-67
2022/06/21 10:16:39;;;;;;;9.38;2.72;;;20.30;51.00;;;;;;637718;225;26543;-68
2022/06/21 10:19:12;;;;;;;7.05;2.55;;;20.20;50.90;;;;;;638836;224;26566;-67
2022/06/21 10:21:40;;;;;;;8.23;2.62;;;20.20;49.90;;;;;;648212;221;26521;-68
2022/06/21 10:24:41;;;;;;;7.57;2.85;;;20.20;49.70;;;;;;637313;221;26528;-67
2022/06/21 10:27:20;;;;;;;6.07;2.97;;;20.30;49.80;;;;;;632177;225;26569;-68
2022/06/21 10:29:56;;;;;;;7.87;2.40;;;20.30;49.80;;;;;;639676;221;26571;-68
2022/06/21 10:32:39;;;;;;;7.47;2.97;;;20.50;49.80;;;;;;650853;220;26489;-68
2022/06/21 10:35:12;;;;;;;1.83;1.45;;;20.40;49.50;;;;;;642266;221;26593;-68
2022/06/21 10:38:02;;;;;;;7.47;2.35;;;20.50;49.20;;;;;;636802;225;26579;-67
2022/06/21 10:40:44;;;;;;;6.65;2.47;;;20.70;48.80;;;;;;621292;230;27041;-67
2022/06/21 10:43:33;;;;;;;3.75;2.08;;;20.80;48.10;;;;;;623149;230;26617;-68
2022/06/21 10:46:00;;;;;;;8.13;2.00;;;20.80;48.10;;;;;;625059;227;26554;-67
2022/06/21 10:48:41;;;;;;;2.47;1.67;;;21.00;48.10;;;;;;628555;227;26613;-67
2022/06/21 10:51:15;;;;;;;3.55;1.77;;;21.00;48.10;;;;;;632169;225;26545;-68
2022/06/21 10:54:03;;;;;;;3.00;2.10;;;21.00;47.50;;;;;;622010;230;26577;-68
2022/06/21 10:59:15;;;;;;;3.40;1.90;;;21.00;46.60;;;;;;626377;228;27172;-65
2022/06/21 11:01:45;;;;;;;5.18;2.17;;;21.10;46.80;;;;;;626405;229;26654;-65
2022/06/21 11:04:22;;;;;;;5.75;1.62;;;21.20;46.70;;;;;;616978;230;26560;-65
2022/06/21 11:06:56;;;;;;;3.17;1.80;;;21.30;45.60;;;;;;626128;229;26535;-65
2022/06/21 11:09:30;;;;;;;5.37;1.73;;;21.30;45.60;;;;;;620511;229;26636;-65
2022/06/21 11:12:52;;;;;;;3.42;1.60;;;21.40;45.50;;;;;;625336;229;26624;-65
2022/06/21 11:14:43;;;;;;;2.97;1.77;;;21.60;45.00;;;;;;621247;228;26590;-65
2022/06/21 11:17:11;;;;;;;3.60;1.70;;;21.80;45.30;;;;;;622774;229;26773;-65
2022/06/21 11:19:38;;;;;;;3.30;1.60;;;21.70;45.40;;;;;;619311;229;26559;-65
2022/06/21 11:22:05;;;;;;;3.83;1.77;;;21.80;44.80;;;;;;625846;229;26783;-65
2022/06/21 11:24:40;;;;;;;2.10;1.80;;;21.80;43.80;;;;;;623506;229;26547;-65
2022/06/21 11:27:14;;;;;;;3.05;1.60;;;21.60;43.90;;;;;;622335;229;26534;-65
2022/06/21 11:29:51;;;;;;;2.20;1.40;;;21.70;43.70;;;;;;620049;229;26559;-65
2022/06/21 11:32:25;;;;;;;4.10;1.55;;;21.80;43.90;;;;;;622466;227;26598;-65
2022/06/21 11:35:13;;;;;;;1.25;1.10;;;21.90;43.30;;;;;;625320;229;26567;-65
2022/06/21 11:38:02;;;;;;;3.53;1.83;;;22.10;43.40;;;;;;624212;230;26571;-65
2022/06/21 11:40:31;;;;;;;2.42;1.48;;;22.30;42.30;;;;;;621257;230;26631;-65
2022/06/21 11:42:59;;;;;;;3.22;1.40;;;22.20;42.20;;;;;;620941;230;26849;-65
2022/06/21 11:45:31;;;;;;;3.15;1.70;;;22.20;43.20;;;;;;620329;230;26607;-65
2022/06/21 11:48:21;;;;;;;2.15;1.50;;;22.30;43.20;;;;;;624429;230;26562;-65
2022/06/21 11:50:55;;;;;;;2.42;1.60;;;22.30;41.70;;;;;;620005;230;26618;-65
2022/06/21 11:53:30;;;;;;;2.58;1.25;;;22.30;41.20;;;;;;621797;230;26522;-65
2022/06/21 11:56:00;;;;;;;1.60;1.20;;;22.40;42.10;;;;;;623433;230;26833;-65
2022/06/21 11:58:43;;;;;;;4.00;1.70;;;22.60;42.70;;;;;;623043;230;26586;-65
2022/06/21 12:01:12;;;;;;;2.15;1.27;;;22.70;41.10;;;;;;620506;227;26650;-66
2022/06/21 12:03:47;;;;;;;1.75;1.30;;;22.80;41.20;;;;;;619090;230;26613;-65
2022/06/21 12:06:14;;;;;;;3.30;1.42;;;22.80;41.10;;;;;;623071;228;26847;-65
2022/06/21 12:08:47;;;;;;;4.12;1.60;;;22.80;40.80;;;;;;622516;227;26603;-70
2022/06/21 12:11:15;;;;;;;2.10;1.25;;;22.90;41.00;;;;;;626666;229;26833;-66
2022/06/21 12:13:46;;;;;;;3.55;1.75;;;22.80;40.50;;;;;;624973;230;26589;-66
2022/06/21 12:16:30;;;;;;;4.75;2.00;;;22.90;41.00;;;;;;625333;230;26521;-66
2022/06/21 12:18:58;;;;;;;1.60;1.50;;;23.10;40.10;;;;;;625625;230;26799;-65
2022/06/21 12:21:26;;;;;;;0.90;0.90;;;23.30;40.10;;;;;;625398;230;26619;-65
2022/06/21 12:23:57;;;;;;;2.30;1.52;;;23.40;40.30;;;;;;625685;230;26807;-65
2022/06/21 12:26:24;;;;;;;2.20;1.60;;;23.70;40.60;;;;;;625771;230;26570;-67
2022/06/21 12:28:52;;;;;;;2.42;1.48;;;24.10;39.70;;;;;;625472;229;26559;-67
2022/06/21 12:31:22;;;;;;;8.30;2.12;;;24.20;39.80;;;;;;625366;230;26528;-67
2022/06/21 12:33:49;;;;;;;6.95;2.05;;;24.20;39.80;;;;;;625274;230;26825;-67
2022/06/21 12:36:22;;;;;;;3.12;1.52;;;24.40;39.50;;;;;;624898;230;26524;-68
2022/06/21 12:38:49;;;;;;;2.33;1.60;;;24.80;39.00;;;;;;624337;230;26566;-67
2022/06/21 12:41:23;;;;;;;3.28;1.85;;;25.00;38.30;;;;;;624334;229;26551;-67
2022/06/21 12:43:53;;;;;;;2.70;1.62;;;25.00;38.30;;;;;;624538;229;26796;-67
2022/06/21 12:46:24;;;;;;;3.12;1.98;;;25.20;38.20;;;;;;624265;230;26555;-65
2022/06/21 12:48:58;;;;;;;2.37;1.35;;;25.50;37.60;;;;;;622671;225;26629;-67
2022/06/21 12:51:27;;;;;;;4.37;2.00;;;26.00;37.10;;;;;;618849;230;26599;-67
2022/06/21 12:54:10;;;;;;;4.68;1.90;;;26.40;37.40;;;;;;624417;230;26822;-68
2022/06/21 12:56:48;;;;;;;2.83;1.92;;;26.50;36.80;;;;;;608980;234;26609;-68
2022/06/21 12:59:23;;;;;;;5.05;2.00;;;26.70;36.20;;;;;;616974;230;26844;-68
2022/06/21 13:02:05;;;;;;;5.18;1.70;;;27.00;35.60;;;;;;626047;230;26579;-67
2022/06/21 13:04:42;;;;;;;7.97;1.98;;;27.30;34.90;;;;;;615748;231;26595;-67
2022/06/21 13:07:20;;;;;;;2.10;1.70;;;28.10;35.20;;;;;;624624;230;26804;-66
2022/06/21 13:10:03;;;;;;;7.75;1.80;;;29.20;33.70;;;;;;626110;228;26586;-67
2022/06/21 13:12:46;;;;;;;3.15;1.77;;;29.10;33.60;;;;;;624888;230;26616;-66
2022/06/21 13:15:17;;;;;;;2.42;1.85;;;29.50;32.90;;;;;;615174;230;26640;-66
2022/06/21 13:17:56;;;;;;;1.70;1.33;;;29.90;32.10;;;;;;622685;229;26566;-67
2022/06/21 13:20:30;;;;;;;4.72;1.70;;;29.10;32.60;;;;;;624980;228;26797;-67
2022/06/21 13:23:14;;;;;;;7.43;2.17;;;29.60;32.50;;;;;;626474;229;27273;-67